Time;durP1;ratioP1;P1;durP2;ratioP2;P2;SDS_P1;SDS_P2;PMS_P1;PMS_P2;Temp;Humidity;BMP_temperature;BMP_pressure;BME280_temperature;BME280_humidity;BME280_pressure;Samples;Min_cycle;Max_cycle;Signal;HPM_P1;HPM_P2
2021/11/06 00:00:58;;;;;;;13.00;10.30;;;8.60;99.90;;;;;;4989588;28;20424;-70
2021/11/06 00:03:23;;;;;;;15.00;9.83;;;8.60;99.90;;;;;;4995242;28;20489;-71
2021/11/06 00:05:49;;;;;;;12.70;9.87;;;8.60;99.90;;;;;;4995256;28;20176;-70
2021/11/06 00:08:15;;;;;;;14.37;10.90;;;8.60;99.90;;;;;;4995146;28;20180;-70
2021/11/06 00:10:40;;;;;;;15.27;11.80;;;8.50;99.90;;;;;;4991544;28;20233;-71
2021/11/06 00:13:06;;;;;;;14.77;12.27;;;8.60;99.90;;;;;;4975561;28;20689;-70
2021/11/06 00:15:32;;;;;;;14.67;12.17;;;8.60;99.90;;;;;;4975570;28;20588;-70
2021/11/06 00:17:57;;;;;;;16.57;11.97;;;8.70;99.90;;;;;;4975606;28;20292;-70
2021/11/06 00:20:23;;;;;;;16.10;11.20;;;8.70;99.90;;;;;;4975769;28;20177;-70
2021/11/06 00:22:49;;;;;;;15.07;12.50;;;8.70;99.90;;;;;;4976755;28;20195;-71
2021/11/06 00:25:14;;;;;;;15.60;12.70;;;8.60;99.90;;;;;;4957989;28;20654;-71
2021/11/06 00:27:41;;;;;;;16.10;12.70;;;8.70;99.90;;;;;;4975678;28;20173;-70
2021/11/06 00:30:09;;;;;;;13.00;11.10;;;8.70;99.90;;;;;;4975536;28;20191;-71
2021/11/06 00:32:35;;;;;;;13.77;11.97;;;8.60;99.90;;;;;;4976491;28;20425;-72
2021/11/06 00:35:01;;;;;;;16.37;12.73;;;8.60;99.90;;;;;;4957737;28;20440;-72
2021/11/06 00:37:27;;;;;;;16.70;12.63;;;8.60;99.90;;;;;;4975721;28;20440;-71
2021/11/06 00:39:53;;;;;;;15.90;12.53;;;8.50;99.90;;;;;;4975328;28;20462;-71
2021/11/06 00:42:19;;;;;;;16.50;13.30;;;8.60;99.90;;;;;;4976272;28;20414;-71
2021/11/06 00:44:45;;;;;;;18.80;15.30;;;8.60;99.90;;;;;;4974775;28;20205;-71
2021/11/06 00:47:11;;;;;;;20.23;16.07;;;8.50;99.90;;;;;;4974731;28;20988;-71
2021/11/06 00:49:37;;;;;;;17.83;15.27;;;8.50;99.90;;;;;;4975120;28;20207;-71
2021/11/06 00:52:04;;;;;;;24.70;17.40;;;8.60;99.90;;;;;;4975219;28;20479;-71
2021/11/06 00:54:29;;;;;;;24.43;17.87;;;8.50;99.90;;;;;;4958673;28;20443;-71
2021/11/06 00:56:55;;;;;;;20.53;17.07;;;8.60;99.90;;;;;;4974549;28;20423;-71
2021/11/06 00:59:20;;;;;;;22.37;17.93;;;8.60;99.90;;;;;;4974596;28;20169;-71
2021/11/06 01:01:46;;;;;;;26.10;20.27;;;8.60;99.90;;;;;;4974425;28;20410;-72
2021/11/06 01:04:12;;;;;;;25.07;18.47;;;8.60;99.90;;;;;;4976064;28;20845;-71
2021/11/06 01:06:38;;;;;;;21.93;16.87;;;8.60;99.90;;;;;;4974548;28;20636;-70
2021/11/06 01:09:04;;;;;;;18.73;16.53;;;8.50;99.90;;;;;;4974789;28;20263;-71
2021/11/06 01:11:30;;;;;;;21.13;16.67;;;8.50;99.90;;;;;;4974761;28;20952;-71
2021/11/06 01:13:55;;;;;;;20.30;16.40;;;8.50;99.90;;;;;;4974558;28;20459;-71
2021/11/06 01:16:21;;;;;;;21.67;18.07;;;8.60;99.90;;;;;;4974381;28;20495;-71
2021/11/06 01:18:47;;;;;;;21.90;18.00;;;8.60;99.90;;;;;;4974550;28;20548;-71
2021/11/06 01:21:12;;;;;;;22.43;16.27;;;8.50;99.90;;;;;;4990303;28;20701;-71
2021/11/06 01:23:38;;;;;;;22.10;15.47;;;8.50;99.90;;;;;;4993819;28;20188;-71
2021/11/06 01:26:03;;;;;;;22.30;15.93;;;8.50;99.90;;;;;;4993379;28;20256;-71
2021/11/06 01:28:30;;;;;;;23.50;16.00;;;8.40;99.90;;;;;;4993915;28;20272;-71
2021/11/06 01:30:55;;;;;;;19.47;15.23;;;8.40;99.90;;;;;;4976613;28;20215;-71
2021/11/06 01:33:21;;;;;;;21.00;15.63;;;8.30;99.90;;;;;;4993865;28;20436;-71
2021/11/06 01:35:47;;;;;;;19.73;14.30;;;8.30;99.90;;;;;;4993313;28;20176;-71
2021/11/06 01:38:13;;;;;;;21.67;15.90;;;8.20;99.90;;;;;;4993917;28;20645;-71
2021/11/06 01:40:39;;;;;;;18.40;14.20;;;8.20;99.90;;;;;;4986684;28;20462;-70
2021/11/06 01:43:05;;;;;;;16.73;13.83;;;8.10;99.90;;;;;;4974614;28;20233;-72
2021/11/06 01:45:31;;;;;;;17.23;13.20;;;8.10;99.90;;;;;;4974571;28;20906;-70
2021/11/06 01:47:56;;;;;;;25.23;14.77;;;8.10;99.90;;;;;;4974395;28;20188;-72
2021/11/06 01:50:23;;;;;;;19.60;12.80;;;8.10;99.90;;;;;;4974206;28;20258;-72
2021/11/06 01:52:49;;;;;;;22.73;13.40;;;8.10;99.90;;;;;;4974146;28;20268;-72
2021/11/06 01:55:14;;;;;;;18.70;13.70;;;8.10;99.90;;;;;;4973884;28;20491;-70
2021/11/06 01:57:40;;;;;;;24.53;14.13;;;8.00;99.90;;;;;;4974189;28;20177;-70
2021/11/06 02:00:16;;;;;;;27.07;11.87;;;8.00;99.90;;;;;;4976629;28;20193;-71
2021/11/06 02:02:42;;;;;;;24.03;12.73;;;8.00;99.90;;;;;;4991709;28;20190;-71
2021/11/06 02:05:09;;;;;;;17.83;13.37;;;8.00;99.90;;;;;;4992862;28;20443;-70
2021/11/06 02:07:34;;;;;;;22.27;13.40;;;8.00;99.90;;;;;;4993500;28;20412;-70
2021/11/06 02:10:00;;;;;;;17.20;11.77;;;8.00;99.90;;;;;;4992831;28;21007;-70
2021/11/06 02:12:26;;;;;;;20.30;11.80;;;8.00;99.90;;;;;;4993449;28;20908;-70
2021/11/06 02:14:53;;;;;;;19.77;14.30;;;8.10;99.90;;;;;;4992850;28;20215;-70
2021/11/06 02:17:19;;;;;;;19.10;12.87;;;8.00;99.90;;;;;;4993157;28;20404;-71
2021/11/06 02:19:45;;;;;;;17.67;12.37;;;8.00;99.90;;;;;;4992958;28;20423;-71
2021/11/06 02:22:10;;;;;;;20.60;11.23;;;8.00;99.90;;;;;;4992000;28;20486;-71
2021/11/06 02:24:36;;;;;;;22.60;12.30;;;7.90;99.90;;;;;;4992777;28;20439;-71
2021/11/06 02:27:02;;;;;;;19.63;10.80;;;7.90;99.90;;;;;;4975490;28;20176;-71
2021/11/06 02:29:27;;;;;;;17.70;11.20;;;7.90;99.90;;;;;;4992829;28;20680;-71
2021/11/06 02:31:53;;;;;;;17.13;12.07;;;7.90;99.90;;;;;;4993105;28;20183;-72
2021/11/06 02:34:19;;;;;;;20.80;12.03;;;7.90;99.90;;;;;;4974996;28;20194;-71
2021/11/06 02:36:44;;;;;;;18.10;12.47;;;7.90;99.90;;;;;;4992392;28;20236;-71
2021/11/06 02:39:10;;;;;;;22.90;13.00;;;7.90;99.90;;;;;;4992904;28;20168;-71
2021/11/06 02:41:36;;;;;;;18.33;11.90;;;7.80;99.90;;;;;;4987118;28;20181;-70
2021/11/06 02:44:13;;;;;;;18.37;13.00;;;7.80;99.90;;;;;;4992572;28;20245;-72
2021/11/06 02:46:40;;;;;;;19.53;13.23;;;7.80;99.90;;;;;;4991683;28;20542;-71
2021/11/06 02:49:10;;;;;;;21.07;14.07;;;7.80;99.90;;;;;;4992501;28;20422;-70
2021/11/06 02:51:35;;;;;;;25.10;12.90;;;7.80;99.90;;;;;;4992522;28;20443;-71
2021/11/06 02:54:02;;;;;;;24.87;13.20;;;7.80;99.90;;;;;;4993132;28;20438;-71
2021/11/06 02:56:28;;;;;;;20.97;13.57;;;7.80;99.90;;;;;;4991834;28;20255;-71
2021/11/06 02:58:55;;;;;;;19.30;14.53;;;7.80;99.90;;;;;;4990979;28;20430;-70
2021/11/06 03:01:21;;;;;;;21.30;14.83;;;7.80;99.90;;;;;;4992355;28;20401;-71
2021/11/06 03:03:47;;;;;;;23.40;15.27;;;7.80;99.90;;;;;;4992336;28;20428;-70
2021/11/06 03:06:13;;;;;;;27.40;15.50;;;7.70;99.90;;;;;;4991831;28;20498;-70
2021/11/06 03:08:39;;;;;;;19.33;13.90;;;7.70;99.90;;;;;;4975028;28;20415;-71
2021/11/06 03:11:05;;;;;;;23.00;15.07;;;7.70;99.90;;;;;;4974736;28;20463;-70
2021/11/06 03:13:31;;;;;;;20.20;13.07;;;7.70;99.90;;;;;;4992014;28;20266;-70
2021/11/06 03:15:57;;;;;;;20.77;14.03;;;7.60;99.90;;;;;;4992300;28;20256;-70
2021/11/06 03:18:22;;;;;;;20.47;14.10;;;7.60;99.90;;;;;;4990403;28;20476;-70
2021/11/06 03:20:48;;;;;;;22.47;14.90;;;7.60;99.90;;;;;;4992139;28;20538;-70
2021/11/06 03:23:14;;;;;;;22.67;15.90;;;7.50;99.90;;;;;;4994748;28;20199;-70
2021/11/06 03:25:39;;;;;;;25.03;15.77;;;7.50;99.90;;;;;;4995922;28;20640;-70
2021/11/06 03:28:06;;;;;;;19.90;15.50;;;7.40;99.90;;;;;;4996047;28;20772;-71
2021/11/06 03:30:31;;;;;;;22.83;15.17;;;7.40;99.90;;;;;;4996180;28;20729;-71
2021/11/06 03:32:57;;;;;;;21.80;15.93;;;7.50;99.90;;;;;;4996287;28;20424;-71
2021/11/06 03:35:23;;;;;;;25.43;15.53;;;7.50;99.90;;;;;;4995864;28;20536;-70
2021/11/06 03:37:49;;;;;;;22.43;15.13;;;7.50;99.90;;;;;;4994305;28;20580;-70
2021/11/06 03:40:15;;;;;;;23.20;16.50;;;7.50;99.90;;;;;;4976355;28;20463;-69
2021/11/06 03:42:41;;;;;;;23.63;15.80;;;7.50;99.90;;;;;;4976361;28;20411;-73
2021/11/06 03:45:08;;;;;;;24.43;15.93;;;7.50;99.90;;;;;;4958788;28;20287;-72
2021/11/06 03:47:34;;;;;;;21.83;15.30;;;7.50;99.90;;;;;;4958557;28;20471;-70
2021/11/06 03:50:00;;;;;;;30.50;15.80;;;7.50;99.90;;;;;;4976392;28;20445;-70
2021/11/06 03:52:25;;;;;;;22.73;16.10;;;7.50;99.90;;;;;;4958797;28;20837;-70
2021/11/06 03:54:51;;;;;;;25.93;15.90;;;7.50;99.90;;;;;;4975920;28;20431;-70
2021/11/06 03:57:17;;;;;;;28.20;17.40;;;7.50;99.90;;;;;;4976663;28;20181;-70
2021/11/06 03:59:42;;;;;;;25.27;15.57;;;7.40;99.90;;;;;;4986079;28;20215;-70
2021/11/06 04:02:08;;;;;;;22.27;15.37;;;7.40;99.90;;;;;;4993673;28;20514;-70
2021/11/06 04:04:34;;;;;;;22.90;16.10;;;7.40;99.90;;;;;;4994869;28;20208;-70
2021/11/06 04:07:00;;;;;;;26.63;15.37;;;7.40;99.90;;;;;;4995232;28;20472;-70
2021/11/06 04:09:25;;;;;;;23.07;15.40;;;7.40;99.90;;;;;;5005836;28;20179;-70
2021/11/06 04:11:51;;;;;;;30.03;15.10;;;7.30;99.90;;;;;;4995719;28;20176;-69
2021/11/06 04:14:17;;;;;;;19.70;14.53;;;7.30;99.90;;;;;;4995533;28;20211;-71
2021/11/06 04:16:42;;;;;;;21.30;14.20;;;7.30;99.90;;;;;;4996604;28;20169;-70
2021/11/06 04:19:08;;;;;;;16.97;13.27;;;7.30;99.90;;;;;;4991623;28;20169;-71
2021/11/06 04:21:34;;;;;;;20.90;13.43;;;7.40;99.90;;;;;;4975984;28;20654;-70
2021/11/06 04:24:00;;;;;;;21.23;12.33;;;7.40;99.90;;;;;;4994480;28;20465;-71
2021/11/06 04:26:26;;;;;;;19.07;13.10;;;7.40;99.90;;;;;;4995091;28;20717;-70
2021/11/06 04:28:51;;;;;;;19.67;13.10;;;7.40;99.90;;;;;;4993932;28;20442;-71
2021/11/06 04:31:17;;;;;;;18.33;12.27;;;7.40;99.90;;;;;;5023899;23;20260;-72
2021/11/06 04:33:42;;;;;;;26.70;13.60;;;7.40;99.90;;;;;;5001311;28;20232;-71
2021/11/06 04:36:09;;;;;;;18.17;11.83;;;7.40;99.90;;;;;;4995455;28;20166;-71
2021/11/06 04:38:36;;;;;;;16.90;11.97;;;7.40;99.90;;;;;;4995711;28;20196;-72
2021/11/06 04:41:02;;;;;;;16.97;11.53;;;7.40;99.90;;;;;;4999027;28;20502;-72
2021/11/06 04:43:27;;;;;;;19.57;13.83;;;7.40;99.90;;;;;;5014587;28;20425;-73
2021/11/06 04:45:53;;;;;;;23.17;12.97;;;7.40;99.90;;;;;;5014491;28;20394;-73
2021/11/06 04:48:18;;;;;;;16.33;11.70;;;7.40;99.90;;;;;;5015166;28;20667;-73
2021/11/06 04:50:44;;;;;;;15.67;11.30;;;7.30;99.90;;;;;;5002198;28;20581;-72
2021/11/06 04:53:10;;;;;;;22.57;13.07;;;7.30;99.90;;;;;;4996406;28;20181;-73
2021/11/06 04:55:35;;;;;;;17.07;12.77;;;7.30;99.90;;;;;;4984791;28;20184;-72
2021/11/06 04:58:01;;;;;;;22.10;14.67;;;7.30;99.90;;;;;;4994897;28;20273;-72
2021/11/06 05:00:27;;;;;;;16.73;11.67;;;7.30;99.90;;;;;;4995085;28;20191;-72
2021/11/06 05:02:53;;;;;;;21.40;13.23;;;7.30;99.90;;;;;;4995911;28;20951;-74
2021/11/06 05:05:18;;;;;;;20.10;14.50;;;7.30;99.90;;;;;;4995453;28;20172;-73
2021/11/06 05:07:44;;;;;;;15.13;11.90;;;7.30;99.90;;;;;;4995698;28;20340;-73
2021/11/06 05:10:09;;;;;;;17.30;13.00;;;7.20;99.90;;;;;;4996237;28;20231;-73
2021/11/06 05:12:35;;;;;;;22.50;14.30;;;7.20;99.90;;;;;;4994987;28;20209;-74
2021/11/06 05:15:03;;;;;;;19.53;13.60;;;7.20;99.90;;;;;;4996023;28;20184;-72
2021/11/06 05:17:29;;;;;;;20.07;12.70;;;7.20;99.90;;;;;;4977600;28;20172;-73
2021/11/06 05:19:57;;;;;;;20.10;12.93;;;7.30;99.90;;;;;;4994893;28;20422;-74
2021/11/06 05:22:22;;;;;;;20.40;14.40;;;7.30;99.90;;;;;;4977474;28;20188;-71
2021/11/06 05:24:48;;;;;;;23.23;12.33;;;7.20;99.90;;;;;;4995658;28;20810;-72
2021/11/06 05:27:13;;;;;;;21.63;12.70;;;7.20;99.90;;;;;;4994945;28;20183;-72
2021/11/06 05:29:39;;;;;;;25.50;14.80;;;7.10;99.90;;;;;;4995236;28;20190;-72
2021/11/06 05:32:05;;;;;;;25.63;14.30;;;7.20;99.90;;;;;;4994740;28;20193;-73
2021/11/06 05:34:30;;;;;;;19.33;13.30;;;7.20;99.90;;;;;;4995924;28;20544;-72
2021/11/06 05:36:56;;;;;;;20.27;13.87;;;7.20;99.90;;;;;;4994525;28;20779;-72
2021/11/06 05:39:22;;;;;;;22.70;13.77;;;7.20;99.90;;;;;;4994508;28;20201;-72
2021/11/06 05:41:48;;;;;;;22.92;15.02;;;7.20;99.90;;;;;;4994001;28;20432;-73
2021/11/06 05:44:14;;;;;;;24.57;14.27;;;7.20;99.90;;;;;;4994725;28;20250;-72
2021/11/06 05:46:39;;;;;;;23.13;14.67;;;7.20;99.90;;;;;;4977767;28;20317;-73
2021/11/06 05:49:05;;;;;;;21.77;13.97;;;7.20;99.90;;;;;;4994187;28;20668;-73
2021/11/06 05:51:30;;;;;;;18.10;13.30;;;7.20;99.90;;;;;;4993995;28;20212;-72
2021/11/06 05:53:56;;;;;;;18.27;13.20;;;7.20;99.90;;;;;;4994416;28;20222;-73
2021/11/06 05:56:21;;;;;;;20.53;13.60;;;7.20;99.90;;;;;;4994897;28;20191;-73
2021/11/06 05:58:47;;;;;;;21.70;14.90;;;7.20;99.90;;;;;;4994464;28;20173;-71
2021/11/06 06:01:13;;;;;;;17.93;14.00;;;7.20;99.90;;;;;;4994191;28;20258;-72
2021/11/06 06:03:38;;;;;;;24.60;14.57;;;7.20;99.90;;;;;;4994340;28;20219;-72
2021/11/06 06:06:04;;;;;;;18.43;13.40;;;7.20;99.90;;;;;;4993800;28;20220;-73
2021/11/06 06:08:30;;;;;;;24.60;15.17;;;7.10;99.90;;;;;;4995362;28;20645;-73
2021/11/06 06:10:55;;;;;;;19.20;14.30;;;7.10;99.90;;;;;;4994166;28;20482;-73
2021/11/06 06:13:21;;;;;;;20.83;14.53;;;7.10;99.90;;;;;;4994363;28;20250;-72
2021/11/06 06:15:47;;;;;;;22.77;13.70;;;7.10;99.90;;;;;;4994230;28;20183;-73
2021/11/06 06:18:12;;;;;;;19.33;14.83;;;7.10;99.90;;;;;;4995318;28;20191;-73
2021/11/06 06:20:38;;;;;;;20.40;13.87;;;7.10;99.90;;;;;;4993507;28;20224;-72
2021/11/06 06:23:04;;;;;;;24.30;15.70;;;7.10;99.90;;;;;;4994075;28;20773;-72
2021/11/06 06:25:30;;;;;;;21.10;14.43;;;7.20;99.90;;;;;;4993299;28;20168;-73
2021/11/06 06:27:55;;;;;;;20.70;15.17;;;7.20;99.90;;;;;;4994806;28;20482;-74
2021/11/06 06:30:21;;;;;;;21.47;14.37;;;7.20;99.90;;;;;;4993296;28;20257;-73
2021/11/06 06:32:47;;;;;;;23.20;14.80;;;7.20;99.90;;;;;;4993377;28;20194;-73
2021/11/06 06:35:14;;;;;;;20.20;14.80;;;7.10;99.90;;;;;;4995076;28;20412;-73
2021/11/06 06:37:40;;;;;;;23.17;15.40;;;7.20;99.90;;;;;;4997080;28;20421;-73
2021/11/06 06:40:07;;;;;;;25.37;16.00;;;7.10;99.90;;;;;;4995569;28;20459;-73
2021/11/06 06:42:32;;;;;;;33.57;13.80;;;7.10;99.90;;;;;;4994765;28;20237;-73
2021/11/06 06:44:58;;;;;;;22.60;15.03;;;7.10;99.90;;;;;;4992814;28;20498;-72
2021/11/06 06:47:24;;;;;;;22.37;15.23;;;7.10;99.90;;;;;;4992762;28;20176;-74
2021/11/06 06:49:50;;;;;;;23.30;15.70;;;7.10;99.90;;;;;;4992766;28;20459;-71
2021/11/06 06:52:17;;;;;;;25.77;15.97;;;7.20;99.90;;;;;;4994461;28;20215;-72
2021/11/06 06:54:43;;;;;;;27.70;15.80;;;7.20;99.90;;;;;;4991879;28;20169;-70
2021/11/06 06:57:08;;;;;;;21.50;15.80;;;7.20;99.90;;;;;;4992635;28;20411;-73
2021/11/06 06:59:35;;;;;;;22.50;15.03;;;7.10;99.90;;;;;;4993283;28;20204;-72
2021/11/06 07:02:02;;;;;;;22.07;15.27;;;7.10;99.90;;;;;;4993234;28;20250;-72
2021/11/06 07:04:28;;;;;;;21.40;14.23;;;7.20;99.90;;;;;;4994280;28;20423;-72
2021/11/06 07:06:54;;;;;;;23.57;14.23;;;7.20;99.90;;;;;;4992378;28;20438;-73
2021/11/06 07:09:20;;;;;;;17.57;13.17;;;7.20;99.90;;;;;;4993061;28;20435;-73
2021/11/06 07:11:47;;;;;;;18.10;12.67;;;7.30;99.90;;;;;;4993117;28;20212;-73
2021/11/06 07:14:12;;;;;;;17.70;12.43;;;7.30;99.90;;;;;;4994040;28;20788;-72
2021/11/06 07:16:38;;;;;;;18.37;13.07;;;7.40;99.90;;;;;;4992785;28;20416;-74
2021/11/06 07:19:04;;;;;;;22.93;13.10;;;7.40;99.90;;;;;;4992968;28;20642;-71
2021/11/06 07:21:30;;;;;;;20.87;13.20;;;7.50;99.90;;;;;;4992834;28;20188;-72
2021/11/06 07:23:55;;;;;;;16.70;12.53;;;7.50;99.90;;;;;;4994040;28;20916;-73
2021/11/06 07:26:21;;;;;;;19.80;12.60;;;7.40;99.90;;;;;;4992976;28;20188;-72
2021/11/06 07:28:46;;;;;;;17.30;12.57;;;7.50;99.90;;;;;;4992930;28;20180;-71
2021/11/06 07:31:12;;;;;;;13.50;11.33;;;7.50;99.90;;;;;;4992760;28;20370;-72
2021/11/06 07:33:38;;;;;;;19.37;12.03;;;7.50;99.90;;;;;;4975254;28;20261;-73
2021/11/06 07:36:04;;;;;;;14.80;11.37;;;7.60;99.90;;;;;;4993460;28;20419;-73
2021/11/06 07:38:29;;;;;;;16.23;11.50;;;7.60;99.90;;;;;;4993501;28;20171;-74
2021/11/06 07:40:55;;;;;;;16.17;11.83;;;7.60;99.90;;;;;;4993176;28;20244;-73
2021/11/06 07:43:20;;;;;;;13.40;10.53;;;7.70;99.90;;;;;;4992757;28;20180;-71
2021/11/06 07:45:46;;;;;;;15.67;11.50;;;7.70;99.90;;;;;;4993592;28;20707;-71
2021/11/06 07:48:12;;;;;;;14.37;9.83;;;7.80;99.90;;;;;;4993240;28;20227;-73
2021/11/06 07:50:37;;;;;;;13.87;10.23;;;7.80;99.90;;;;;;4988389;28;20236;-72
2021/11/06 07:53:03;;;;;;;15.03;9.73;;;7.80;99.90;;;;;;4986771;28;20180;-71
2021/11/06 07:55:28;;;;;;;11.13;9.10;;;7.90;99.90;;;;;;4985591;28;20650;-71
2021/11/06 07:57:54;;;;;;;14.43;9.20;;;8.00;99.90;;;;;;4994031;28;20177;-73
2021/11/06 08:00:19;;;;;;;12.63;9.23;;;8.10;99.90;;;;;;4987654;28;20232;-72
2021/11/06 08:02:46;;;;;;;13.07;10.30;;;8.10;99.90;;;;;;4992866;28;20187;-72
2021/11/06 08:05:14;;;;;;;12.70;10.07;;;8.20;99.90;;;;;;4992853;28;20192;-73
2021/11/06 08:07:41;;;;;;;13.20;10.40;;;8.10;99.90;;;;;;4995926;28;20432;-72
2021/11/06 08:10:07;;;;;;;13.10;9.93;;;8.10;99.90;;;;;;4995048;28;20554;-73
2021/11/06 08:12:37;;;;;;;15.50;10.40;;;8.10;99.90;;;;;;4994904;28;21029;-73
2021/11/06 08:15:04;;;;;;;13.03;9.23;;;8.20;99.90;;;;;;4976638;28;20457;-73
2021/11/06 08:17:29;;;;;;;12.00;9.80;;;8.30;99.90;;;;;;4998368;28;20441;-73
2021/11/06 08:19:56;;;;;;;11.80;9.70;;;8.40;99.90;;;;;;4992932;28;20424;-73
2021/11/06 08:22:22;;;;;;;12.90;9.40;;;8.40;99.90;;;;;;4983740;28;20184;-72
2021/11/06 08:24:47;;;;;;;13.68;11.27;;;8.50;99.90;;;;;;4992275;28;20412;-72
2021/11/06 08:27:14;;;;;;;13.83;9.17;;;8.50;99.90;;;;;;4993487;28;20183;-72
2021/11/06 08:29:40;;;;;;;12.83;8.30;;;8.50;99.90;;;;;;4997485;28;20197;-71
2021/11/06 08:32:06;;;;;;;12.50;9.70;;;8.50;99.90;;;;;;4984092;28;20962;-72
2021/11/06 08:34:32;;;;;;;12.68;8.98;;;8.50;99.90;;;;;;4988180;28;20428;-72
2021/11/06 08:36:59;;;;;;;12.00;8.30;;;8.40;99.90;;;;;;4986355;28;20242;-72
2021/11/06 08:39:25;;;;;;;11.00;8.80;;;8.40;99.90;;;;;;4998096;28;20551;-73
2021/11/06 08:41:52;;;;;;;9.73;8.10;;;8.40;99.90;;;;;;5005872;28;20618;-72
2021/11/06 08:44:19;;;;;;;12.03;8.10;;;8.40;99.90;;;;;;5003119;28;20947;-74
2021/11/06 08:46:46;;;;;;;10.00;8.40;;;8.40;99.90;;;;;;5003106;28;20467;-71
2021/11/06 08:49:13;;;;;;;9.07;8.07;;;8.40;99.90;;;;;;5011714;28;20430;-74
2021/11/06 08:51:44;;;;;;;12.83;9.27;;;8.50;99.90;;;;;;4980192;28;20603;-73
2021/11/06 08:54:10;;;;;;;8.93;8.00;;;8.50;99.90;;;;;;4996516;28;21061;-73
2021/11/06 08:56:36;;;;;;;11.30;9.17;;;8.50;99.90;;;;;;4994921;28;20463;-73
2021/11/06 08:59:02;;;;;;;12.60;8.07;;;8.60;99.90;;;;;;4992867;28;20471;-73
2021/11/06 09:01:28;;;;;;;8.60;7.00;;;8.70;99.90;;;;;;5000446;28;20220;-73
2021/11/06 09:03:54;;;;;;;9.70;8.07;;;8.70;99.90;;;;;;5010236;28;20469;-73
2021/11/06 09:06:19;;;;;;;12.50;9.17;;;8.80;99.90;;;;;;5028127;28;20954;-72
2021/11/06 09:08:46;;;;;;;9.80;7.77;;;8.70;99.90;;;;;;5026710;28;20266;-72
2021/11/06 09:11:13;;;;;;;11.10;7.83;;;8.80;99.90;;;;;;5025144;28;20217;-71
2021/11/06 09:13:40;;;;;;;6.80;6.10;;;8.80;99.90;;;;;;5013198;28;20526;-72
2021/11/06 09:16:09;;;;;;;10.47;6.07;;;8.80;99.90;;;;;;5005477;28;20443;-71
2021/11/06 09:18:39;;;;;;;6.30;5.60;;;9.00;99.90;;;;;;4993970;28;20441;-74
2021/11/06 09:21:09;;;;;;;7.23;6.53;;;9.10;99.90;;;;;;4992485;28;21284;-74
2021/11/06 09:23:36;;;;;;;8.53;6.00;;;9.30;99.90;;;;;;4992571;28;20466;-73
2021/11/06 09:26:02;;;;;;;7.57;5.87;;;9.30;99.90;;;;;;4987725;28;20880;-71
2021/11/06 09:28:28;;;;;;;8.33;6.63;;;9.30;99.90;;;;;;4970197;28;20470;-71
2021/11/06 09:30:54;;;;;;;7.10;6.50;;;9.40;99.90;;;;;;4995510;28;20473;-73
2021/11/06 09:33:21;;;;;;;11.17;6.00;;;9.40;99.90;;;;;;4981794;28;20621;-73
2021/11/06 09:35:47;;;;;;;7.63;6.20;;;9.50;99.90;;;;;;4991935;28;20922;-73
2021/11/06 09:38:13;;;;;;;8.50;6.97;;;9.50;99.90;;;;;;4975399;28;20462;-74
2021/11/06 09:40:39;;;;;;;14.27;6.00;;;9.60;99.90;;;;;;4974400;28;20543;-71
2021/11/06 09:43:06;;;;;;;7.37;6.63;;;9.60;99.90;;;;;;4991567;28;20263;-73
2021/11/06 09:45:32;;;;;;;7.50;5.90;;;9.80;99.90;;;;;;4994021;28;20632;-72
2021/11/06 09:47:58;;;;;;;9.47;6.20;;;9.80;99.90;;;;;;5010687;28;20552;-73
2021/11/06 09:50:25;;;;;;;8.10;5.80;;;9.80;99.90;;;;;;4991977;28;20504;-73
2021/11/06 09:52:52;;;;;;;7.83;5.93;;;9.70;99.90;;;;;;5010586;28;20457;-73
2021/11/06 09:55:22;;;;;;;7.00;6.30;;;9.70;99.90;;;;;;5011130;28;20437;-73
2021/11/06 09:57:49;;;;;;;10.07;6.63;;;9.70;99.90;;;;;;5008601;28;20541;-72
2021/11/06 10:00:16;;;;;;;8.00;6.37;;;9.70;99.90;;;;;;5009618;28;20441;-72
2021/11/06 10:02:42;;;;;;;8.73;6.27;;;9.80;99.90;;;;;;5010890;28;20465;-73
2021/11/06 10:05:08;;;;;;;8.10;6.20;;;9.80;99.90;;;;;;5009435;28;20468;-72
2021/11/06 10:07:35;;;;;;;7.20;6.50;;;9.90;99.90;;;;;;5007628;28;20505;-74
2021/11/06 10:10:13;;;;;;;7.60;6.80;;;9.90;99.90;;;;;;4991892;28;20476;-71
2021/11/06 10:12:46;;;;;;;7.87;6.20;;;9.90;99.90;;;;;;5009787;28;20535;-73
2021/11/06 10:15:13;;;;;;;9.87;6.73;;;10.00;99.90;;;;;;5010618;28;20534;-74
2021/11/06 10:17:39;;;;;;;8.77;6.40;;;10.10;99.90;;;;;;4988539;28;20449;-74
2021/11/06 10:20:17;;;;;;;8.57;6.63;;;9.90;99.90;;;;;;4970420;28;20474;-72
2021/11/06 10:22:45;;;;;;;8.50;6.77;;;10.00;99.90;;;;;;4987704;28;20476;-73
2021/11/06 10:25:10;;;;;;;10.70;6.10;;;10.00;99.90;;;;;;4992443;28;20490;-73
2021/11/06 10:27:36;;;;;;;7.13;6.43;;;10.00;99.90;;;;;;4993491;28;20434;-73
2021/11/06 10:30:18;;;;;;;7.70;6.60;;;10.10;99.90;;;;;;4992084;28;20704;-73
2021/11/06 10:33:13;;;;;;;6.80;5.80;;;10.20;99.90;;;;;;4984790;28;20254;-71
2021/11/06 10:35:44;;;;;;;7.70;6.87;;;10.30;99.90;;;;;;4986018;28;20431;-72
2021/11/06 10:38:21;;;;;;;12.00;7.33;;;10.40;99.90;;;;;;4992346;28;20467;-74
2021/11/06 10:40:50;;;;;;;11.27;6.60;;;10.50;99.90;;;;;;4955952;28;20479;-73
2021/11/06 10:43:19;;;;;;;8.03;6.83;;;10.60;99.90;;;;;;5009348;28;20505;-73
2021/11/06 10:45:51;;;;;;;9.07;6.63;;;10.70;99.90;;;;;;4991971;28;20558;-73
2021/11/06 10:48:19;;;;;;;8.97;8.07;;;10.70;99.90;;;;;;4984456;28;20458;-74
2021/11/06 10:50:47;;;;;;;8.87;7.23;;;10.70;99.90;;;;;;4991085;28;20471;-71
2021/11/06 10:53:40;;;;;;;10.43;7.17;;;10.80;99.90;;;;;;4988423;28;20870;-73
2021/11/06 10:56:28;;;;;;;8.00;7.20;;;10.70;99.90;;;;;;4992303;28;21008;-73
2021/11/06 10:58:56;;;;;;;7.87;6.97;;;10.90;99.90;;;;;;4986830;28;20538;-72
2021/11/06 11:01:25;;;;;;;8.13;6.60;;;10.90;99.90;;;;;;4986361;28;20481;-75
2021/11/06 11:03:59;;;;;;;9.87;7.00;;;10.80;99.90;;;;;;4994377;28;20877;-71
2021/11/06 11:06:32;;;;;;;8.80;7.43;;;10.90;99.90;;;;;;4991019;28;20478;-75
2021/11/06 11:08:58;;;;;;;7.57;6.83;;;10.90;99.90;;;;;;4986678;28;20465;-72
2021/11/06 11:11:29;;;;;;;7.40;6.67;;;10.90;99.90;;;;;;4991388;28;20525;-75
2021/11/06 11:14:10;;;;;;;8.27;6.80;;;11.00;99.90;;;;;;4989688;28;20479;-71
2021/11/06 11:16:38;;;;;;;8.33;7.30;;;11.00;99.90;;;;;;4988603;28;20443;-71
2021/11/06 11:19:07;;;;;;;8.47;7.53;;;11.10;99.90;;;;;;4987051;28;20455;-72
2021/11/06 11:21:43;;;;;;;9.57;8.30;;;11.10;99.90;;;;;;4991814;28;20413;-73
2021/11/06 11:24:12;;;;;;;7.67;6.87;;;11.20;99.90;;;;;;4993453;28;20221;-72
2021/11/06 11:26:41;;;;;;;8.73;6.60;;;11.30;99.90;;;;;;4985571;28;20443;-73
2021/11/06 11:29:09;;;;;;;9.33;6.77;;;11.40;99.90;;;;;;4989555;28;20474;-73
2021/11/06 11:31:36;;;;;;;8.30;7.47;;;11.50;99.90;;;;;;4985949;28;20490;-73
2021/11/06 11:34:02;;;;;;;7.30;6.60;;;11.70;99.90;;;;;;4984009;28;20454;-73
2021/11/06 11:36:30;;;;;;;9.20;6.20;;;11.70;99.90;;;;;;5008690;28;20526;-73
2021/11/06 11:38:57;;;;;;;6.67;5.70;;;11.70;99.90;;;;;;4997710;28;20224;-73
2021/11/06 11:41:25;;;;;;;6.53;5.90;;;11.80;99.90;;;;;;5000180;28;20529;-73
2021/11/06 11:43:50;;;;;;;7.63;6.20;;;11.90;99.90;;;;;;4989678;28;20450;-72
2021/11/06 11:46:38;;;;;;;7.70;5.73;;;11.90;99.90;;;;;;4986085;28;20477;-72
2021/11/06 11:49:04;;;;;;;7.43;6.20;;;11.90;99.90;;;;;;4983769;28;20199;-72
2021/11/06 11:51:31;;;;;;;6.30;5.70;;;11.90;99.90;;;;;;4993438;28;20482;-71
2021/11/06 11:54:10;;;;;;;6.20;5.00;;;11.90;99.90;;;;;;4993351;28;20450;-71
2021/11/06 11:56:38;;;;;;;5.80;4.87;;;11.90;99.90;;;;;;4992389;28;20562;-72
2021/11/06 11:59:05;;;;;;;8.93;5.30;;;11.70;99.90;;;;;;4991608;28;20455;-74
2021/11/06 12:01:31;;;;;;;5.07;4.50;;;11.70;99.90;;;;;;4992268;28;20454;-72
2021/11/06 12:04:14;;;;;;;6.40;4.60;;;11.70;99.90;;;;;;4992789;28;20438;-72
2021/11/06 12:06:43;;;;;;;4.90;4.40;;;11.70;99.90;;;;;;4993048;28;20516;-73
2021/11/06 12:09:11;;;;;;;5.53;4.63;;;11.60;99.90;;;;;;4992345;28;20443;-71
2021/11/06 12:12:04;;;;;;;5.40;3.90;;;11.60;99.90;;;;;;4992309;28;20866;-73
2021/11/06 12:14:34;;;;;;;4.80;3.80;;;11.60;99.90;;;;;;4989755;28;20972;-73
2021/11/06 12:17:05;;;;;;;4.73;4.13;;;11.60;99.90;;;;;;4993495;28;20466;-73
2021/11/06 12:19:46;;;;;;;6.87;4.40;;;11.70;99.90;;;;;;5007425;28;20435;-73
2021/11/06 12:22:21;;;;;;;4.47;3.47;;;11.70;99.90;;;;;;4994181;28;20450;-72
2021/11/06 12:24:50;;;;;;;6.73;4.33;;;11.80;99.90;;;;;;4994601;28;20470;-71
2021/11/06 12:27:31;;;;;;;6.10;3.60;;;11.90;99.90;;;;;;4994345;28;20566;-71
2021/11/06 12:29:56;;;;;;;3.73;3.30;;;11.90;99.90;;;;;;5010410;28;20561;-73
2021/11/06 12:32:26;;;;;;;9.70;3.97;;;12.00;99.90;;;;;;4993428;28;20517;-72
2021/11/06 12:34:57;;;;;;;4.17;3.53;;;12.20;99.90;;;;;;4992441;28;20231;-72
2021/11/06 12:37:35;;;;;;;4.77;3.80;;;12.20;99.90;;;;;;4993592;28;20455;-72
2021/11/06 12:40:14;;;;;;;3.73;3.20;;;12.20;99.90;;;;;;5007861;28;21044;-75